sensor_id;sensor_type;location;lat;lon;timestamp;pressure;altitude;pressure_sealevel;temperature;humidity
45813;BME280;31519;45.408;10.962;2023-04-16T00:01:30;100164.91;;;15.31;48.17
45813;BME280;31519;45.408;10.962;2023-04-16T00:03:58;100160.25;;;15.00;48.77
45813;BME280;31519;45.408;10.962;2023-04-16T00:06:26;100160.63;;;14.86;49.21
45813;BME280;31519;45.408;10.962;2023-04-16T00:08:54;100160.94;;;15.25;48.68
45813;BME280;31519;45.408;10.962;2023-04-16T00:11:23;100160.78;;;15.33;48.55
45813;BME280;31519;45.408;10.962;2023-04-16T00:13:50;100159.06;;;15.13;49.04
45813;BME280;31519;45.408;10.962;2023-04-16T00:16:18;100159.59;;;15.19;49.05
45813;BME280;31519;45.408;10.962;2023-04-16T00:18:46;100156.59;;;15.36;49.03
45813;BME280;31519;45.408;10.962;2023-04-16T00:21:14;100164.41;;;15.25;49.61
45813;BME280;31519;45.408;10.962;2023-04-16T00:23:41;100164.50;;;15.29;49.23
45813;BME280;31519;45.408;10.962;2023-04-16T00:26:09;100163.63;;;15.25;49.17
45813;BME280;31519;45.408;10.962;2023-04-16T00:28:40;100159.53;;;15.15;49.43
45813;BME280;31519;45.408;10.962;2023-04-16T00:31:08;100162.28;;;15.19;49.74
45813;BME280;31519;45.408;10.962;2023-04-16T00:33:36;100170.28;;;15.31;49.84
45813;BME280;31519;45.408;10.962;2023-04-16T00:36:04;100167.59;;;15.31;49.85
45813;BME280;31519;45.408;10.962;2023-04-16T00:38:31;100165.50;;;14.96;50.52
45813;BME280;31519;45.408;10.962;2023-04-16T00:40:59;100170.78;;;14.93;50.76
45813;BME280;31519;45.408;10.962;2023-04-16T00:43:27;100172.28;;;14.78;51.42
45813;BME280;31519;45.408;10.962;2023-04-16T00:45:55;100174.00;;;14.58;52.05
45813;BME280;31519;45.408;10.962;2023-04-16T00:48:23;100172.44;;;14.45;52.72
45813;BME280;31519;45.408;10.962;2023-04-16T00:50:54;100175.91;;;14.46;52.97
45813;BME280;31519;45.408;10.962;2023-04-16T00:53:22;100174.44;;;14.60;52.92
45813;BME280;31519;45.408;10.962;2023-04-16T00:55:50;100176.22;;;14.69;52.73
45813;BME280;31519;45.408;10.962;2023-04-16T00:58:18;100171.78;;;14.36;53.57
45813;BME280;31519;45.408;10.962;2023-04-16T01:00:47;100174.72;;;14.71;53.00
45813;BME280;31519;45.408;10.962;2023-04-16T01:03:15;100166.41;;;14.48;53.66
45813;BME280;31519;45.408;10.962;2023-04-16T01:05:44;100168.09;;;14.29;54.40
45813;BME280;31519;45.408;10.962;2023-04-16T01:08:16;100171.19;;;14.31;54.44
45813;BME280;31519;45.408;10.962;2023-04-16T01:10:44;100174.56;;;14.40;54.29
45813;BME280;31519;45.408;10.962;2023-04-16T01:13:12;100174.56;;;14.40;54.38
45813;BME280;31519;45.408;10.962;2023-04-16T01:15:40;100173.66;;;14.60;53.49
45813;BME280;31519;45.408;10.962;2023-04-16T01:18:14;100170.28;;;14.63;53.87
45813;BME280;31519;45.408;10.962;2023-04-16T01:20:43;100167.47;;;14.72;53.52
45813;BME280;31519;45.408;10.962;2023-04-16T01:23:10;100166.16;;;14.66;53.59
45813;BME280;31519;45.408;10.962;2023-04-16T01:25:38;100171.78;;;14.24;54.22
45813;BME280;31519;45.408;10.962;2023-04-16T01:28:06;100168.66;;;14.46;54.21
45813;BME280;31519;45.408;10.962;2023-04-16T01:30:34;100173.44;;;14.53;54.36
45813;BME280;31519;45.408;10.962;2023-04-16T01:33:19;100173.78;;;14.39;54.41
45813;BME280;31519;45.408;10.962;2023-04-16T01:35:48;100166.88;;;14.38;54.70
45813;BME280;31519;45.408;10.962;2023-04-16T01:38:15;100165.97;;;14.34;54.69
45813;BME280;31519;45.408;10.962;2023-04-16T01:40:44;100163.97;;;14.43;54.65
45813;BME280;31519;45.408;10.962;2023-04-16T01:43:11;100169.34;;;14.43;54.88
45813;BME280;31519;45.408;10.962;2023-04-16T01:45:39;100175.25;;;14.37;54.82
45813;BME280;31519;45.408;10.962;2023-04-16T01:48:07;100177.59;;;14.38;54.98
45813;BME280;31519;45.408;10.962;2023-04-16T01:50:35;100183.13;;;14.70;53.58
45813;BME280;31519;45.408;10.962;2023-04-16T01:53:04;100178.00;;;14.04;54.62
45813;BME280;31519;45.408;10.962;2023-04-16T01:55:32;100177.13;;;14.00;55.05
45813;BME280;31519;45.408;10.962;2023-04-16T01:58:00;100172.31;;;13.69;56.49
45813;BME280;31519;45.408;10.962;2023-04-16T02:00:33;100172.78;;;13.83;56.54
45813;BME280;31519;45.408;10.962;2023-04-16T02:03:00;100180.47;;;13.97;55.97
45813;BME280;31519;45.408;10.962;2023-04-16T02:05:29;100180.59;;;14.00;55.87
45813;BME280;31519;45.408;10.962;2023-04-16T02:07:57;100186.28;;;14.11;55.83
45813;BME280;31519;45.408;10.962;2023-04-16T02:10:25;100178.56;;;13.85;55.96
45813;BME280;31519;45.408;10.962;2023-04-16T02:12:53;100186.00;;;13.80;56.08
45813;BME280;31519;45.408;10.962;2023-04-16T02:15:22;100183.84;;;14.06;55.74
45813;BME280;31519;45.408;10.962;2023-04-16T02:17:51;100191.31;;;14.00;56.22
45813;BME280;31519;45.408;10.962;2023-04-16T02:20:25;100190.06;;;13.86;56.59
45813;BME280;31519;45.408;10.962;2023-04-16T02:22:57;100189.06;;;13.90;56.43
45813;BME280;31519;45.408;10.962;2023-04-16T02:25:26;100185.63;;;14.14;55.77
45813;BME280;31519;45.408;10.962;2023-04-16T02:27:56;100189.19;;;14.06;55.94
45813;BME280;31519;45.408;10.962;2023-04-16T02:30:40;100184.25;;;13.96;56.24
45813;BME280;31519;45.408;10.962;2023-04-16T02:33:09;100183.16;;;14.09;56.23
45813;BME280;31519;45.408;10.962;2023-04-16T02:35:40;100186.38;;;14.02;56.22
45813;BME280;31519;45.408;10.962;2023-04-16T02:38:08;100186.84;;;13.92;56.68
45813;BME280;31519;45.408;10.962;2023-04-16T02:40:36;100187.16;;;13.79;56.72
45813;BME280;31519;45.408;10.962;2023-04-16T02:43:04;100186.69;;;13.76;57.17
45813;BME280;31519;45.408;10.962;2023-04-16T02:45:32;100197.41;;;13.76;57.31
45813;BME280;31519;45.408;10.962;2023-04-16T02:48:00;100192.50;;;13.91;57.25
45813;BME280;31519;45.408;10.962;2023-04-16T02:50:29;100189.25;;;13.73;57.22
45813;BME280;31519;45.408;10.962;2023-04-16T02:52:56;100202.53;;;13.69;57.10
45813;BME280;31519;45.408;10.962;2023-04-16T02:55:24;100196.13;;;13.62;57.69
45813;BME280;31519;45.408;10.962;2023-04-16T02:57:52;100199.25;;;13.52;58.18
45813;BME280;31519;45.408;10.962;2023-04-16T03:00:20;100202.00;;;13.43;58.59
45813;BME280;31519;45.408;10.962;2023-04-16T03:02:47;100204.81;;;13.47;58.57
45813;BME280;31519;45.408;10.962;2023-04-16T03:05:16;100205.06;;;13.66;58.07
45813;BME280;31519;45.408;10.962;2023-04-16T03:07:44;100208.78;;;13.73;57.48
45813;BME280;31519;45.408;10.962;2023-04-16T03:10:12;100208.28;;;13.59;57.91
45813;BME280;31519;45.408;10.962;2023-04-16T03:12:40;100210.75;;;13.64;57.97
45813;BME280;31519;45.408;10.962;2023-04-16T03:15:08;100215.75;;;13.54;57.99
45813;BME280;31519;45.408;10.962;2023-04-16T03:17:36;100217.75;;;13.57;58.18
45813;BME280;31519;45.408;10.962;2023-04-16T03:20:04;100222.56;;;13.51;58.54
45813;BME280;31519;45.408;10.962;2023-04-16T03:22:32;100219.31;;;13.25;60.08
45813;BME280;31519;45.408;10.962;2023-04-16T03:25:00;100219.47;;;13.28;60.17
45813;BME280;31519;45.408;10.962;2023-04-16T03:27:30;100227.59;;;13.32;60.06
45813;BME280;31519;45.408;10.962;2023-04-16T03:29:58;100223.38;;;13.43;60.03
45813;BME280;31519;45.408;10.962;2023-04-16T03:32:27;100221.66;;;13.47;59.87
45813;BME280;31519;45.408;10.962;2023-04-16T03:34:55;100229.50;;;13.64;58.95
45813;BME280;31519;45.408;10.962;2023-04-16T03:37:22;100231.41;;;13.43;59.36
45813;BME280;31519;45.408;10.962;2023-04-16T03:39:51;100237.13;;;13.21;60.21
45813;BME280;31519;45.408;10.962;2023-04-16T03:42:18;100241.88;;;13.15;60.39
45813;BME280;31519;45.408;10.962;2023-04-16T03:44:46;100245.53;;;13.31;60.18
45813;BME280;31519;45.408;10.962;2023-04-16T03:47:15;100240.25;;;13.23;60.03
45813;BME280;31519;45.408;10.962;2023-04-16T03:49:44;100240.41;;;12.97;60.92
45813;BME280;31519;45.408;10.962;2023-04-16T03:52:13;100244.66;;;12.98;60.83
45813;BME280;31519;45.408;10.962;2023-04-16T03:54:41;100246.69;;;13.01;61.16
45813;BME280;31519;45.408;10.962;2023-04-16T03:57:20;100249.88;;;13.24;60.67
45813;BME280;31519;45.408;10.962;2023-04-16T03:59:49;100249.91;;;13.36;60.50
45813;BME280;31519;45.408;10.962;2023-04-16T04:02:17;100246.72;;;13.22;60.92
45813;BME280;31519;45.408;10.962;2023-04-16T04:04:45;100247.63;;;13.26;59.99
45813;BME280;31519;45.408;10.962;2023-04-16T04:07:14;100246.56;;;12.98;61.37
45813;BME280;31519;45.408;10.962;2023-04-16T04:09:42;100243.94;;;12.68;62.61
45813;BME280;31519;45.408;10.962;2023-04-16T04:12:10;100246.47;;;12.65;62.98
45813;BME280;31519;45.408;10.962;2023-04-16T04:14:40;100251.88;;;12.77;62.60
45813;BME280;31519;45.408;10.962;2023-04-16T04:17:08;100254.34;;;13.11;61.98
45813;BME280;31519;45.408;10.962;2023-04-16T04:19:36;100257.66;;;12.87;62.33
45813;BME280;31519;45.408;10.962;2023-04-16T04:22:13;100257.25;;;12.77;62.14
45813;BME280;31519;45.408;10.962;2023-04-16T04:24:41;100260.09;;;12.72;62.58
45813;BME280;31519;45.408;10.962;2023-04-16T04:27:09;100260.31;;;12.87;62.26
45813;BME280;31519;45.408;10.962;2023-04-16T04:29:37;100265.84;;;13.03;62.07
45813;BME280;31519;45.408;10.962;2023-04-16T04:32:05;100262.75;;;13.01;61.72
45813;BME280;31519;45.408;10.962;2023-04-16T04:34:34;100264.09;;;12.86;62.22
45813;BME280;31519;45.408;10.962;2023-04-16T04:37:02;100263.56;;;12.72;62.85
45813;BME280;31519;45.408;10.962;2023-04-16T04:39:30;100269.38;;;12.66;63.28
45813;BME280;31519;45.408;10.962;2023-04-16T04:41:58;100278.31;;;12.78;62.67
45813;BME280;31519;45.408;10.962;2023-04-16T04:44:27;100276.38;;;12.87;62.19
45813;BME280;31519;45.408;10.962;2023-04-16T04:46:55;100278.69;;;13.18;61.77
45813;BME280;31519;45.408;10.962;2023-04-16T04:49:23;100288.47;;;13.14;61.61
45813;BME280;31519;45.408;10.962;2023-04-16T04:51:52;100285.13;;;13.17;61.51
45813;BME280;31519;45.408;10.962;2023-04-16T04:54:21;100285.00;;;13.14;61.11
45813;BME280;31519;45.408;10.962;2023-04-16T04:56:48;100295.50;;;12.89;61.57
45813;BME280;31519;45.408;10.962;2023-04-16T04:59:21;100292.72;;;12.86;61.71
45813;BME280;31519;45.408;10.962;2023-04-16T05:01:50;100294.16;;;13.04;61.23
45813;BME280;31519;45.408;10.962;2023-04-16T05:04:18;100291.88;;;13.23;60.06
45813;BME280;31519;45.408;10.962;2023-04-16T05:06:46;100287.13;;;13.00;60.94
45813;BME280;31519;45.408;10.962;2023-04-16T05:09:14;100300.06;;;12.89;61.19
45813;BME280;31519;45.408;10.962;2023-04-16T05:11:41;100310.66;;;13.15;60.97
45813;BME280;31519;45.408;10.962;2023-04-16T05:14:09;100310.66;;;13.15;61.15
45813;BME280;31519;45.408;10.962;2023-04-16T05:16:37;100315.22;;;13.14;61.25
45813;BME280;31519;45.408;10.962;2023-04-16T05:19:05;100317.28;;;13.29;60.13
45813;BME280;31519;45.408;10.962;2023-04-16T05:21:33;100321.19;;;13.73;58.94
45813;BME280;31519;45.408;10.962;2023-04-16T05:24:01;100323.31;;;13.47;59.39
45813;BME280;31519;45.408;10.962;2023-04-16T05:26:28;100330.22;;;13.48;59.24
45813;BME280;31519;45.408;10.962;2023-04-16T05:28:56;100341.38;;;13.71;59.03
45813;BME280;31519;45.408;10.962;2023-04-16T05:31:24;100326.13;;;13.51;58.77
45813;BME280;31519;45.408;10.962;2023-04-16T05:33:52;100339.22;;;13.44;58.64
45813;BME280;31519;45.408;10.962;2023-04-16T05:36:20;100334.28;;;13.54;58.34
45813;BME280;31519;45.408;10.962;2023-04-16T05:38:48;100336.22;;;13.66;58.10
45813;BME280;31519;45.408;10.962;2023-04-16T05:41:15;100347.09;;;13.82;57.47
45813;BME280;31519;45.408;10.962;2023-04-16T05:43:43;100352.97;;;13.75;57.29
45813;BME280;31519;45.408;10.962;2023-04-16T05:46:11;100352.97;;;13.96;56.81
45813;BME280;31519;45.408;10.962;2023-04-16T05:48:39;100358.22;;;14.04;56.71
45813;BME280;31519;45.408;10.962;2023-04-16T05:51:06;100361.44;;;13.98;56.53
45813;BME280;31519;45.408;10.962;2023-04-16T05:53:34;100367.66;;;14.23;55.92
45813;BME280;31519;45.408;10.962;2023-04-16T05:56:02;100377.56;;;14.10;55.74
45813;BME280;31519;45.408;10.962;2023-04-16T05:58:30;100379.63;;;14.25;55.73
45813;BME280;31519;45.408;10.962;2023-04-16T06:00:58;100381.88;;;14.35;55.73
45813;BME280;31519;45.408;10.962;2023-04-16T06:03:26;100388.88;;;14.73;54.72
45813;BME280;31519;45.408;10.962;2023-04-16T06:05:53;100376.47;;;14.56;55.14
45813;BME280;31519;45.408;10.962;2023-04-16T06:08:22;100376.94;;;14.70;54.53
45813;BME280;31519;45.408;10.962;2023-04-16T06:10:50;100375.38;;;14.81;54.54
45813;BME280;31519;45.408;10.962;2023-04-16T06:13:18;100374.84;;;15.12;54.23
45813;BME280;31519;45.408;10.962;2023-04-16T06:15:46;100378.19;;;14.97;54.49
45813;BME280;31519;45.408;10.962;2023-04-16T06:18:14;100381.41;;;14.66;55.69
45813;BME280;31519;45.408;10.962;2023-04-16T06:20:42;100378.13;;;14.48;56.67
45813;BME280;31519;45.408;10.962;2023-04-16T06:23:10;100379.47;;;14.21;57.63
45813;BME280;31519;45.408;10.962;2023-04-16T06:25:37;100380.47;;;14.50;56.92
45813;BME280;31519;45.408;10.962;2023-04-16T06:28:05;100381.75;;;14.32;57.65
45813;BME280;31519;45.408;10.962;2023-04-16T06:30:33;100382.44;;;14.29;57.98
45813;BME280;31519;45.408;10.962;2023-04-16T06:33:01;100390.09;;;14.18;58.27
45813;BME280;31519;45.408;10.962;2023-04-16T06:35:28;100385.00;;;14.25;58.68
45813;BME280;31519;45.408;10.962;2023-04-16T06:37:56;100391.09;;;14.46;58.04
45813;BME280;31519;45.408;10.962;2023-04-16T06:40:23;100383.31;;;14.20;58.98
45813;BME280;31519;45.408;10.962;2023-04-16T06:42:52;100388.63;;;14.41;59.47
45813;BME280;31519;45.408;10.962;2023-04-16T06:45:19;100383.22;;;14.29;59.33
45813;BME280;31519;45.408;10.962;2023-04-16T06:47:47;100388.88;;;14.15;59.80
45813;BME280;31519;45.408;10.962;2023-04-16T06:50:16;100396.88;;;14.36;59.32
45813;BME280;31519;45.408;10.962;2023-04-16T06:52:43;100402.59;;;14.59;59.22
45813;BME280;31519;45.408;10.962;2023-04-16T06:55:11;100399.94;;;14.59;58.53
45813;BME280;31519;45.408;10.962;2023-04-16T06:57:39;100404.75;;;14.66;57.33
45813;BME280;31519;45.408;10.962;2023-04-16T07:00:07;100396.16;;;14.60;57.35
45813;BME280;31519;45.408;10.962;2023-04-16T07:02:35;100398.81;;;14.60;57.64
45813;BME280;31519;45.408;10.962;2023-04-16T07:05:03;100402.50;;;14.68;57.20
45813;BME280;31519;45.408;10.962;2023-04-16T07:07:31;100397.59;;;15.18;55.81
45813;BME280;31519;45.408;10.962;2023-04-16T07:09:58;100396.94;;;15.09;56.46
45813;BME280;31519;45.408;10.962;2023-04-16T07:12:27;100401.16;;;15.46;55.50
45813;BME280;31519;45.408;10.962;2023-04-16T07:14:54;100398.41;;;15.83;52.79
45813;BME280;31519;45.408;10.962;2023-04-16T07:17:23;100403.59;;;16.04;52.47
45813;BME280;31519;45.408;10.962;2023-04-16T07:19:51;100401.06;;;16.38;51.45
45813;BME280;31519;45.408;10.962;2023-04-16T07:22:20;100404.81;;;16.06;50.80
45813;BME280;31519;45.408;10.962;2023-04-16T07:24:47;100396.91;;;16.41;50.53
45813;BME280;31519;45.408;10.962;2023-04-16T07:27:15;100391.53;;;16.41;49.70
45813;BME280;31519;45.408;10.962;2023-04-16T07:29:43;100398.53;;;17.05;48.94
45813;BME280;31519;45.408;10.962;2023-04-16T07:32:12;100398.69;;;17.82;46.62
45813;BME280;31519;45.408;10.962;2023-04-16T07:34:42;100397.63;;;17.86;45.80
45813;BME280;31519;45.408;10.962;2023-04-16T07:37:10;100401.16;;;17.55;46.14
45813;BME280;31519;45.408;10.962;2023-04-16T07:39:37;100401.00;;;18.02;46.06
45813;BME280;31519;45.408;10.962;2023-04-16T07:42:05;100392.94;;;17.48;45.94
45813;BME280;31519;45.408;10.962;2023-04-16T07:44:33;100399.72;;;17.42;47.17
45813;BME280;31519;45.408;10.962;2023-04-16T07:47:01;100407.50;;;18.21;46.33
45813;BME280;31519;45.408;10.962;2023-04-16T07:49:31;100404.91;;;18.47;45.67
45813;BME280;31519;45.408;10.962;2023-04-16T07:51:59;100413.88;;;18.51;45.65
45813;BME280;31519;45.408;10.962;2023-04-16T07:54:27;100409.34;;;18.78;44.82
45813;BME280;31519;45.408;10.962;2023-04-16T07:56:55;100414.78;;;17.78;46.48
45813;BME280;31519;45.408;10.962;2023-04-16T07:59:23;100421.03;;;17.82;46.94
45813;BME280;31519;45.408;10.962;2023-04-16T08:01:51;100423.06;;;18.27;46.01
45813;BME280;31519;45.408;10.962;2023-04-16T08:04:19;100423.75;;;18.89;45.07
45813;BME280;31519;45.408;10.962;2023-04-16T08:06:53;100425.97;;;19.06;44.70
45813;BME280;31519;45.408;10.962;2023-04-16T08:09:21;100430.25;;;19.33;43.87
45813;BME280;31519;45.408;10.962;2023-04-16T08:11:49;100426.00;;;19.59;43.72
45813;BME280;31519;45.408;10.962;2023-04-16T08:14:17;100422.41;;;20.11;42.32
45813;BME280;31519;45.408;10.962;2023-04-16T08:16:45;100415.72;;;20.01;42.38
45813;BME280;31519;45.408;10.962;2023-04-16T08:19:13;100425.38;;;19.42;43.22
45813;BME280;31519;45.408;10.962;2023-04-16T08:21:41;100418.59;;;18.80;44.85
45813;BME280;31519;45.408;10.962;2023-04-16T08:24:09;100423.13;;;19.74;43.39
45813;BME280;31519;45.408;10.962;2023-04-16T08:26:37;100430.78;;;18.93;44.69
45813;BME280;31519;45.408;10.962;2023-04-16T08:29:04;100424.94;;;18.65;44.49
45813;BME280;31519;45.408;10.962;2023-04-16T08:31:32;100427.44;;;19.26;43.90
45813;BME280;31519;45.408;10.962;2023-04-16T08:34:00;100431.72;;;19.54;42.71
45813;BME280;31519;45.408;10.962;2023-04-16T08:36:28;100422.81;;;19.00;43.31
45813;BME280;31519;45.408;10.962;2023-04-16T08:38:55;100435.00;;;19.17;43.37
45813;BME280;31519;45.408;10.962;2023-04-16T08:41:23;100436.53;;;19.67;42.40
45813;BME280;31519;45.408;10.962;2023-04-16T08:43:53;100427.97;;;20.62;40.40
45813;BME280;31519;45.408;10.962;2023-04-16T08:46:23;100431.94;;;20.75;38.37
45813;BME280;31519;45.408;10.962;2023-04-16T08:48:53;100431.84;;;21.12;38.14
45813;BME280;31519;45.408;10.962;2023-04-16T08:51:24;100435.66;;;20.56;37.63
45813;BME280;31519;45.408;10.962;2023-04-16T08:53:57;100447.72;;;19.66;37.49
45813;BME280;31519;45.408;10.962;2023-04-16T08:56:27;100441.41;;;19.58;37.24
45813;BME280;31519;45.408;10.962;2023-04-16T08:58:54;100448.06;;;19.64;38.14
45813;BME280;31519;45.408;10.962;2023-04-16T09:01:23;100443.25;;;19.51;37.45
45813;BME280;31519;45.408;10.962;2023-04-16T09:03:52;100439.59;;;19.66;37.45
45813;BME280;31519;45.408;10.962;2023-04-16T09:06:21;100437.03;;;20.06;37.38
45813;BME280;31519;45.408;10.962;2023-04-16T09:08:49;100437.63;;;19.10;38.97
45813;BME280;31519;45.408;10.962;2023-04-16T09:11:17;100441.59;;;19.72;38.31
45813;BME280;31519;45.408;10.962;2023-04-16T09:13:45;100442.34;;;20.73;37.08
45813;BME280;31519;45.408;10.962;2023-04-16T09:16:13;100437.31;;;21.15;36.99
45813;BME280;31519;45.408;10.962;2023-04-16T09:18:41;100437.44;;;21.33;35.70
45813;BME280;31519;45.408;10.962;2023-04-16T09:21:09;100439.81;;;21.42;34.82
45813;BME280;31519;45.408;10.962;2023-04-16T09:23:37;100439.47;;;20.96;35.10
45813;BME280;31519;45.408;10.962;2023-04-16T09:26:06;100434.72;;;21.33;34.40
45813;BME280;31519;45.408;10.962;2023-04-16T09:28:44;100432.31;;;20.33;35.88
45813;BME280;31519;45.408;10.962;2023-04-16T09:31:13;100436.66;;;21.29;35.00
45813;BME280;31519;45.408;10.962;2023-04-16T09:33:41;100446.03;;;20.51;35.75
45813;BME280;31519;45.408;10.962;2023-04-16T09:36:09;100451.78;;;20.49;35.34
45813;BME280;31519;45.408;10.962;2023-04-16T09:38:47;100446.47;;;21.04;35.43
45813;BME280;31519;45.408;10.962;2023-04-16T09:41:16;100444.72;;;20.38;36.29
45813;BME280;31519;45.408;10.962;2023-04-16T09:43:57;100451.59;;;19.68;37.18
45813;BME280;31519;45.408;10.962;2023-04-16T09:48:55;100438.13;;;20.02;36.54
45813;BME280;31519;45.408;10.962;2023-04-16T09:51:23;100436.03;;;20.58;35.85
45813;BME280;31519;45.408;10.962;2023-04-16T09:53:55;100432.25;;;20.66;35.43
45813;BME280;31519;45.408;10.962;2023-04-16T09:56:23;100435.50;;;20.09;35.37
45813;BME280;31519;45.408;10.962;2023-04-16T09:58:55;100434.31;;;20.80;34.99
45813;BME280;31519;45.408;10.962;2023-04-16T10:01:24;100431.72;;;20.94;34.01
45813;BME280;31519;45.408;10.962;2023-04-16T10:03:53;100431.91;;;21.15;34.04
45813;BME280;31519;45.408;10.962;2023-04-16T10:06:23;100433.72;;;21.04;34.21
45813;BME280;31519;45.408;10.962;2023-04-16T10:08:53;100426.59;;;21.30;33.03
45813;BME280;31519;45.408;10.962;2023-04-16T10:11:24;100433.84;;;20.71;32.33
45813;BME280;31519;45.408;10.962;2023-04-16T10:13:52;100433.53;;;20.79;33.08
45813;BME280;31519;45.408;10.962;2023-04-16T10:16:20;100423.75;;;20.68;32.96
45813;BME280;31519;45.408;10.962;2023-04-16T10:18:48;100438.44;;;20.67;33.64
45813;BME280;31519;45.408;10.962;2023-04-16T10:21:16;100428.63;;;20.96;32.79
45813;BME280;31519;45.408;10.962;2023-04-16T10:23:44;100420.56;;;20.59;33.48
45813;BME280;31519;45.408;10.962;2023-04-16T10:26:13;100423.66;;;21.01;33.82
45813;BME280;31519;45.408;10.962;2023-04-16T10:28:41;100433.34;;;21.02;32.38
45813;BME280;31519;45.408;10.962;2023-04-16T10:31:08;100428.72;;;21.10;33.18
45813;BME280;31519;45.408;10.962;2023-04-16T10:33:40;100428.19;;;22.24;31.91
45813;BME280;31519;45.408;10.962;2023-04-16T10:36:13;100435.50;;;22.09;31.56
45813;BME280;31519;45.408;10.962;2023-04-16T10:38:45;100433.28;;;21.50;32.65
45813;BME280;31519;45.408;10.962;2023-04-16T10:41:13;100428.63;;;22.65;31.56
45813;BME280;31519;45.408;10.962;2023-04-16T10:43:48;100427.00;;;22.11;31.01
45813;BME280;31519;45.408;10.962;2023-04-16T10:46:17;100417.75;;;22.37;31.55
45813;BME280;31519;45.408;10.962;2023-04-16T10:48:48;100424.81;;;22.84;30.05
45813;BME280;31519;45.408;10.962;2023-04-16T10:53:52;100419.69;;;21.39;31.93
45813;BME280;31519;45.408;10.962;2023-04-16T10:56:24;100417.00;;;22.61;30.51
45813;BME280;31519;45.408;10.962;2023-04-16T10:58:53;100422.00;;;22.27;29.68
45813;BME280;31519;45.408;10.962;2023-04-16T11:01:31;100415.75;;;23.68;28.64
45813;BME280;31519;45.408;10.962;2023-04-16T11:12:17;100404.94;;;23.29;29.37
45813;BME280;31519;45.408;10.962;2023-04-16T11:14:46;100406.06;;;23.64;29.27
45813;BME280;31519;45.408;10.962;2023-04-16T11:17:15;100394.44;;;22.15;30.58
45813;BME280;31519;45.408;10.962;2023-04-16T11:19:42;100405.72;;;22.27;30.54
45813;BME280;31519;45.408;10.962;2023-04-16T11:22:11;100393.16;;;21.84;31.07
45813;BME280;31519;45.408;10.962;2023-04-16T11:24:41;100399.50;;;22.23;30.18
45813;BME280;31519;45.408;10.962;2023-04-16T11:27:10;100393.75;;;22.99;29.64
45813;BME280;31519;45.408;10.962;2023-04-16T11:29:38;100408.44;;;22.38;30.90
45813;BME280;31519;45.408;10.962;2023-04-16T11:32:06;100395.28;;;22.58;30.61
45813;BME280;31519;45.408;10.962;2023-04-16T11:34:41;100398.41;;;22.63;30.73
45813;BME280;31519;45.408;10.962;2023-04-16T11:37:09;100397.63;;;22.73;30.25
45813;BME280;31519;45.408;10.962;2023-04-16T11:39:49;100396.97;;;23.95;29.33
45813;BME280;31519;45.408;10.962;2023-04-16T11:42:21;100390.16;;;24.87;28.30
45813;BME280;31519;45.408;10.962;2023-04-16T11:44:52;100394.84;;;25.27;27.02
45813;BME280;31519;45.408;10.962;2023-04-16T11:47:21;100392.34;;;24.54;28.21
45813;BME280;31519;45.408;10.962;2023-04-16T11:49:49;100401.09;;;22.60;30.19
45813;BME280;31519;45.408;10.962;2023-04-16T11:52:27;100387.91;;;23.08;30.23
45813;BME280;31519;45.408;10.962;2023-04-16T11:54:55;100378.09;;;24.36;28.16
45813;BME280;31519;45.408;10.962;2023-04-16T11:57:25;100376.06;;;24.51;28.11
45813;BME280;31519;45.408;10.962;2023-04-16T11:59:53;100372.66;;;24.88;27.90
45813;BME280;31519;45.408;10.962;2023-04-16T12:02:40;100378.91;;;23.50;28.83
45813;BME280;31519;45.408;10.962;2023-04-16T12:07:58;100378.13;;;23.49;29.52
45813;BME280;31519;45.408;10.962;2023-04-16T12:10:27;100380.47;;;23.40;29.58
45813;BME280;31519;45.408;10.962;2023-04-16T12:13:16;100380.56;;;22.83;30.47
45813;BME280;31519;45.408;10.962;2023-04-16T12:15:46;100375.91;;;22.84;30.53
45813;BME280;31519;45.408;10.962;2023-04-16T12:18:15;100377.09;;;22.90;30.32
45813;BME280;31519;45.408;10.962;2023-04-16T12:20:43;100371.25;;;22.74;30.41
45813;BME280;31519;45.408;10.962;2023-04-16T12:23:28;100367.94;;;23.71;29.24
45813;BME280;31519;45.408;10.962;2023-04-16T12:25:56;100352.63;;;24.60;28.99
45813;BME280;31519;45.408;10.962;2023-04-16T12:28:33;100361.53;;;25.09;27.63
45813;BME280;31519;45.408;10.962;2023-04-16T12:31:01;100354.13;;;24.13;29.05
45813;BME280;31519;45.408;10.962;2023-04-16T12:33:29;100359.47;;;23.58;30.06
45813;BME280;31519;45.408;10.962;2023-04-16T12:35:57;100350.00;;;23.84;30.00
45813;BME280;31519;45.408;10.962;2023-04-16T12:38:26;100345.09;;;25.80;27.93
45813;BME280;31519;45.408;10.962;2023-04-16T12:40:54;100351.81;;;25.08;27.97
45813;BME280;31519;45.408;10.962;2023-04-16T12:43:23;100348.47;;;24.45;28.75
45813;BME280;31519;45.408;10.962;2023-04-16T12:45:52;100362.03;;;23.90;29.66
45813;BME280;31519;45.408;10.962;2023-04-16T12:48:20;100347.88;;;24.68;28.75
45813;BME280;31519;45.408;10.962;2023-04-16T12:50:47;100344.59;;;24.91;28.48
45813;BME280;31519;45.408;10.962;2023-04-16T12:53:15;100337.41;;;25.75;27.47
45813;BME280;31519;45.408;10.962;2023-04-16T12:55:43;100350.00;;;25.32;27.62
45813;BME280;31519;45.408;10.962;2023-04-16T12:58:12;100354.88;;;24.14;29.37
45813;BME280;31519;45.408;10.962;2023-04-16T13:00:39;100348.09;;;23.81;29.70
45813;BME280;31519;45.408;10.962;2023-04-16T13:03:07;100350.66;;;24.09;28.96
45813;BME280;31519;45.408;10.962;2023-04-16T13:05:35;100347.91;;;25.77;27.71